Time;durP1;ratioP1;P1;durP2;ratioP2;P2;SDS_P1;SDS_P2;PMS_P1;PMS_P2;Temp;Humidity;BMP_temperature;BMP_pressure;BME280_temperature;BME280_humidity;BME280_pressure;Samples;Min_cycle;Max_cycle;Signal;HPM_P1;HPM_P2
2021/03/29 00:01:26;;;;;;;8.13;6.10;;;8.80;79.90;;;;;;5094239;28;20290;-40
2021/03/29 00:03:53;;;;;;;5.18;4.63;;;8.70;80.40;;;;;;5094701;28;20640;-40
2021/03/29 00:06:21;;;;;;;8.00;5.30;;;8.70;80.80;;;;;;5093830;28;20215;-40
2021/03/29 00:08:50;;;;;;;8.48;5.82;;;8.60;81.20;;;;;;5093817;28;20645;-40
2021/03/29 00:11:17;;;;;;;7.55;5.53;;;8.60;81.80;;;;;;5093965;28;20310;-40
2021/03/29 00:13:46;;;;;;;5.82;4.90;;;8.50;82.10;;;;;;5093718;28;20218;-40
2021/03/29 00:16:15;;;;;;;7.07;4.97;;;8.50;82.60;;;;;;5093746;28;20228;-40
2021/03/29 00:18:42;;;;;;;7.18;5.63;;;8.50;83.20;;;;;;5093805;28;20246;-40
2021/03/29 00:21:10;;;;;;;6.10;5.07;;;8.50;83.70;;;;;;5093515;28;20263;-40
2021/03/29 00:23:38;;;;;;;7.72;5.10;;;8.50;83.90;;;;;;5093807;28;20293;-40
2021/03/29 00:26:07;;;;;;;4.78;4.38;;;8.50;84.40;;;;;;5093794;28;20318;-40
2021/03/29 00:28:34;;;;;;;7.97;4.90;;;8.40;84.70;;;;;;5093608;28;20276;-40
2021/03/29 00:31:04;;;;;;;5.22;4.72;;;8.40;85.30;;;;;;5093516;28;20230;-40
2021/03/29 00:33:32;;;;;;;6.85;5.22;;;8.40;85.70;;;;;;5093334;28;20211;-40
2021/03/29 00:36:00;;;;;;;5.70;3.90;;;8.40;86.10;;;;;;5093511;28;20637;-40
2021/03/29 00:38:28;;;;;;;6.78;4.82;;;8.40;86.40;;;;;;5093467;28;20260;-41
2021/03/29 00:40:59;;;;;;;6.30;5.70;;;8.30;86.70;;;;;;5093171;28;20282;-45
2021/03/29 00:43:29;;;;;;;9.02;7.40;;;8.30;87.10;;;;;;5093241;28;20293;-40
2021/03/29 00:45:57;;;;;;;8.50;6.22;;;8.30;87.50;;;;;;5093112;28;20283;-40
2021/03/29 00:48:26;;;;;;;6.80;4.88;;;8.30;87.90;;;;;;5093009;28;20211;-40
2021/03/29 00:50:56;;;;;;;18.92;13.85;;;8.30;88.40;;;;;;5093242;28;20233;-40
2021/03/29 00:53:24;;;;;;;7.45;6.50;;;8.20;88.80;;;;;;5093061;28;20630;-40
2021/03/29 00:55:52;;;;;;;5.70;4.70;;;8.10;89.20;;;;;;5092990;28;20207;-40
2021/03/29 00:58:23;;;;;;;5.05;4.57;;;8.10;89.70;;;;;;5093040;28;20633;-40
2021/03/29 01:00:55;;;;;;;6.10;5.50;;;8.10;90.10;;;;;;5093027;28;20294;-40
2021/03/29 01:03:23;;;;;;;6.55;4.97;;;8.10;90.30;;;;;;5093011;28;20648;-40
2021/03/29 01:05:58;;;;;;;6.68;5.50;;;8.10;90.50;;;;;;5093222;28;20305;-40
2021/03/29 01:08:26;;;;;;;5.43;4.93;;;8.00;90.70;;;;;;5092794;28;20340;-40
2021/03/29 01:10:54;;;;;;;8.38;5.10;;;8.00;90.80;;;;;;5092671;28;20215;-42
2021/03/29 01:13:23;;;;;;;8.27;4.55;;;8.00;90.90;;;;;;5092648;28;20645;-40
2021/03/29 01:15:55;;;;;;;7.53;4.45;;;8.10;91.10;;;;;;5092837;28;20569;-40
2021/03/29 01:18:25;;;;;;;5.80;5.20;;;8.10;91.20;;;;;;5092698;28;20301;-40
2021/03/29 01:21:24;;;;;;;6.47;4.85;;;8.10;91.20;;;;;;5092731;28;20231;-40
2021/03/29 01:23:55;;;;;;;6.03;4.60;;;8.10;91.40;;;;;;5092870;28;20302;-40
2021/03/29 01:26:35;;;;;;;6.68;5.63;;;8.10;91.40;;;;;;5092498;28;20206;-40
2021/03/29 01:29:02;;;;;;;8.88;5.15;;;8.10;91.60;;;;;;5092449;28;20210;-40
2021/03/29 01:31:30;;;;;;;6.00;4.90;;;8.10;91.70;;;;;;5092337;28;20308;-40
2021/03/29 01:33:58;;;;;;;5.22;4.38;;;8.00;91.80;;;;;;5092401;28;20290;-41
2021/03/29 01:36:28;;;;;;;6.00;4.57;;;8.00;92.00;;;;;;5092766;28;20621;-41
2021/03/29 01:38:55;;;;;;;5.05;4.55;;;8.00;92.10;;;;;;5092167;28;20335;-41
2021/03/29 01:41:23;;;;;;;6.50;4.55;;;8.00;92.30;;;;;;5092234;28;20713;-41
2021/03/29 01:43:52;;;;;;;6.57;4.88;;;7.90;92.50;;;;;;5092401;28;20252;-40
2021/03/29 01:46:19;;;;;;;7.93;4.57;;;7.90;92.70;;;;;;5091014;28;20692;-41
2021/03/29 01:48:47;;;;;;;5.40;4.90;;;7.80;92.90;;;;;;5072307;28;20211;-40
2021/03/29 01:51:16;;;;;;;5.82;4.57;;;7.80;93.10;;;;;;5072386;28;20214;-41
2021/03/29 01:53:44;;;;;;;7.03;4.72;;;7.70;93.30;;;;;;5092594;28;20253;-40
2021/03/29 01:56:12;;;;;;;5.47;4.70;;;7.70;93.50;;;;;;5092137;28;20564;-40
2021/03/29 01:58:39;;;;;;;9.82;5.82;;;7.60;93.60;;;;;;5092163;28;20268;-41
2021/03/29 02:01:10;;;;;;;5.90;4.95;;;7.60;93.80;;;;;;5092002;28;20269;-40
2021/03/29 02:03:37;;;;;;;5.60;4.75;;;7.60;93.90;;;;;;5092432;28;20210;-41
2021/03/29 02:06:06;;;;;;;6.35;4.38;;;7.60;94.00;;;;;;5092317;28;20226;-41
2021/03/29 02:08:34;;;;;;;6.22;5.53;;;7.60;94.10;;;;;;5092078;28;20245;-41
2021/03/29 02:11:02;;;;;;;6.53;4.75;;;7.60;94.20;;;;;;5092081;28;20244;-41
2021/03/29 02:13:32;;;;;;;5.88;5.25;;;7.60;94.20;;;;;;5092050;28;20293;-41
2021/03/29 02:16:02;;;;;;;6.88;5.00;;;7.60;94.30;;;;;;5092097;28;20302;-41
2021/03/29 02:18:32;;;;;;;4.85;4.35;;;7.50;94.40;;;;;;5092139;28;20294;-41
2021/03/29 02:21:04;;;;;;;6.57;4.28;;;7.50;94.50;;;;;;5092039;28;20258;-41
2021/03/29 02:23:32;;;;;;;6.25;4.07;;;7.50;94.60;;;;;;5092045;28;20260;-42
2021/03/29 02:26:01;;;;;;;7.05;4.30;;;7.40;94.60;;;;;;5091924;28;20544;-41
2021/03/29 02:28:28;;;;;;;6.97;4.57;;;7.40;94.80;;;;;;5091801;28;20352;-42
2021/03/29 02:30:56;;;;;;;6.00;4.30;;;7.40;94.90;;;;;;5091908;28;20238;-40
2021/03/29 02:33:23;;;;;;;5.93;4.90;;;7.30;95.00;;;;;;5091872;28;20232;-41
2021/03/29 02:35:53;;;;;;;7.30;5.00;;;7.30;95.20;;;;;;5091804;28;20535;-48
2021/03/29 02:38:21;;;;;;;12.38;5.43;;;7.20;95.40;;;;;;5092119;28;20249;-41
2021/03/29 02:40:50;;;;;;;7.80;4.55;;;7.20;95.50;;;;;;5092006;28;20254;-40
2021/03/29 02:43:19;;;;;;;7.63;4.90;;;7.10;95.60;;;;;;5091821;28;20293;-40
2021/03/29 02:45:51;;;;;;;7.60;4.10;;;7.10;95.70;;;;;;5092008;28;20214;-40
2021/03/29 02:48:20;;;;;;;5.07;4.45;;;7.10;95.80;;;;;;5091839;28;20673;-40
2021/03/29 02:50:49;;;;;;;5.50;4.70;;;7.10;95.80;;;;;;5091765;28;20290;-40
2021/03/29 02:53:22;;;;;;;9.48;5.28;;;7.10;95.80;;;;;;5095941;28;20313;-41
2021/03/29 02:55:52;;;;;;;6.00;5.40;;;7.10;95.90;;;;;;5099446;28;20211;-42
2021/03/29 02:58:24;;;;;;;8.10;5.50;;;7.00;96.00;;;;;;5099848;28;20203;-40
2021/03/29 03:00:53;;;;;;;9.45;5.72;;;6.90;96.20;;;;;;5099333;28;20258;-42
2021/03/29 03:03:21;;;;;;;8.18;5.47;;;6.80;96.30;;;;;;5100121;28;20206;-42
2021/03/29 03:05:51;;;;;;;9.02;5.30;;;6.80;96.50;;;;;;5095910;28;20223;-41
2021/03/29 03:08:20;;;;;;;7.50;5.45;;;6.70;96.60;;;;;;5095393;28;20259;-41
2021/03/29 03:10:47;;;;;;;5.90;5.00;;;6.80;96.70;;;;;;5095290;28;20733;-40
2021/03/29 03:13:15;;;;;;;7.70;5.55;;;6.80;96.70;;;;;;5095488;28;20619;-40
2021/03/29 03:15:42;;;;;;;7.55;5.90;;;6.80;96.70;;;;;;5095295;28;20237;-40
2021/03/29 03:18:10;;;;;;;6.95;5.03;;;6.80;96.80;;;;;;5094996;28;20229;-40
2021/03/29 03:20:39;;;;;;;7.38;5.63;;;6.70;96.80;;;;;;5095191;28;20668;-40
2021/03/29 03:23:13;;;;;;;10.15;6.10;;;6.70;96.90;;;;;;5095106;28;20673;-40
2021/03/29 03:25:44;;;;;;;8.57;6.75;;;6.80;97.00;;;;;;5095304;28;20233;-40
2021/03/29 03:28:13;;;;;;;7.60;5.07;;;6.80;97.00;;;;;;5095023;28;20253;-40
2021/03/29 03:30:42;;;;;;;6.45;5.07;;;6.70;97.00;;;;;;5094943;28;20679;-40
2021/03/29 03:33:12;;;;;;;7.63;5.20;;;6.70;97.00;;;;;;5095060;28;20557;-40
2021/03/29 03:35:40;;;;;;;5.95;5.35;;;6.70;97.10;;;;;;5095083;28;20325;-40
2021/03/29 03:38:11;;;;;;;5.15;4.63;;;6.70;97.30;;;;;;5094827;28;20739;-40
2021/03/29 03:40:41;;;;;;;6.78;5.22;;;6.60;97.30;;;;;;5094661;28;20249;-40
2021/03/29 03:43:10;;;;;;;5.95;5.35;;;6.60;97.40;;;;;;5080768;28;20223;-40
2021/03/29 03:45:41;;;;;;;5.38;4.88;;;6.60;97.50;;;;;;5074259;28;20670;-40
2021/03/29 03:48:11;;;;;;;8.43;5.70;;;6.60;97.50;;;;;;5074535;28;20292;-40
2021/03/29 03:50:39;;;;;;;11.88;6.93;;;6.60;97.60;;;;;;5074273;28;20251;-40
2021/03/29 03:53:06;;;;;;;9.23;6.10;;;6.60;97.70;;;;;;5074235;28;20247;-40
2021/03/29 03:55:34;;;;;;;6.63;5.15;;;6.60;97.70;;;;;;5074128;28;20237;-41
2021/03/29 03:58:03;;;;;;;6.90;6.10;;;6.60;97.80;;;;;;5074447;28;20294;-41
2021/03/29 04:00:31;;;;;;;13.18;6.00;;;6.50;97.80;;;;;;5074041;28;20246;-40
2021/03/29 04:02:58;;;;;;;7.68;5.30;;;6.50;97.90;;;;;;5073613;28;20234;-42
2021/03/29 04:05:25;;;;;;;6.63;5.60;;;6.50;97.90;;;;;;5074244;28;20282;-40
2021/03/29 04:08:12;;;;;;;9.88;5.97;;;6.50;98.00;;;;;;5073475;28;20245;-39
2021/03/29 04:10:43;;;;;;;8.40;6.10;;;6.40;98.00;;;;;;5073851;28;20302;-40
2021/03/29 04:13:14;;;;;;;5.97;5.32;;;6.50;98.00;;;;;;5081732;28;20206;-40
2021/03/29 04:15:41;;;;;;;10.82;6.10;;;6.50;98.10;;;;;;5094083;28;20301;-41
2021/03/29 04:18:09;;;;;;;7.15;5.35;;;6.50;98.10;;;;;;5094043;28;20318;-42
2021/03/29 04:20:37;;;;;;;6.65;5.72;;;6.50;98.10;;;;;;5093809;28;20250;-41
2021/03/29 04:23:04;;;;;;;12.43;6.60;;;6.50;98.00;;;;;;5093951;28;20333;-38
2021/03/29 04:25:31;;;;;;;9.20;6.90;;;6.50;98.00;;;;;;5093832;28;20294;-42
2021/03/29 04:27:58;;;;;;;7.05;6.18;;;6.50;98.00;;;;;;5093827;28;20290;-43
2021/03/29 04:30:26;;;;;;;6.47;5.82;;;6.60;98.00;;;;;;5093756;28;20568;-42
2021/03/29 04:32:54;;;;;;;8.65;7.72;;;6.60;98.00;;;;;;5093811;28;20206;-42
2021/03/29 04:35:24;;;;;;;7.32;5.18;;;6.60;98.00;;;;;;5093817;28;20276;-42
2021/03/29 04:37:52;;;;;;;6.15;5.55;;;6.50;98.00;;;;;;5093960;28;20531;-41
2021/03/29 04:40:20;;;;;;;6.95;5.63;;;6.50;98.00;;;;;;5093778;28;20314;-40
2021/03/29 04:42:48;;;;;;;6.72;4.97;;;6.50;98.10;;;;;;5093822;28;20234;-44
2021/03/29 04:45:16;;;;;;;7.15;5.15;;;6.50;98.10;;;;;;5093802;28;20301;-42
2021/03/29 04:47:44;;;;;;;11.75;5.68;;;6.40;98.10;;;;;;5093487;28;20264;-43
2021/03/29 04:50:15;;;;;;;7.55;5.80;;;6.40;98.10;;;;;;5100503;28;20241;-43
2021/03/29 04:52:42;;;;;;;8.48;6.05;;;6.50;98.20;;;;;;5094203;28;20246;-41
2021/03/29 04:55:11;;;;;;;10.52;6.88;;;6.50;98.20;;;;;;5093623;28;20297;-41
2021/03/29 04:57:38;;;;;;;8.52;5.70;;;6.40;98.10;;;;;;5094319;28;20217;-40
2021/03/29 05:00:06;;;;;;;10.50;6.78;;;6.40;98.40;;;;;;5093462;28;20259;-41
2021/03/29 05:02:33;;;;;;;8.90;6.32;;;6.40;98.10;;;;;;5093471;28;20226;-41
2021/03/29 05:05:02;;;;;;;8.35;6.65;;;6.50;98.10;;;;;;5093988;28;20230;-40
2021/03/29 05:07:28;;;;;;;10.27;6.28;;;6.50;98.00;;;;;;5094024;28;20245;-44
2021/03/29 05:09:55;;;;;;;9.27;6.53;;;6.50;98.00;;;;;;5093119;28;20339;-42
2021/03/29 05:12:23;;;;;;;15.10;6.43;;;6.60;97.90;;;;;;5093318;28;20289;-41
2021/03/29 05:14:51;;;;;;;6.95;6.05;;;6.60;97.80;;;;;;5092712;28;20211;-40
2021/03/29 05:17:19;;;;;;;9.48;6.13;;;6.60;97.80;;;;;;5093253;28;20293;-41
2021/03/29 05:19:48;;;;;;;8.50;6.47;;;6.60;97.70;;;;;;5092885;28;20621;-41
2021/03/29 05:22:16;;;;;;;8.07;6.18;;;6.70;97.60;;;;;;5093759;28;20226;-41
2021/03/29 05:24:43;;;;;;;6.65;5.93;;;6.70;97.60;;;;;;5093123;28;20673;-40
2021/03/29 05:27:10;;;;;;;6.70;5.35;;;6.70;97.50;;;;;;5092681;28;20237;-42
2021/03/29 05:29:43;;;;;;;7.20;6.07;;;6.70;97.50;;;;;;5093143;28;20627;-41
2021/03/29 05:32:15;;;;;;;8.82;5.97;;;6.70;97.50;;;;;;5092629;28;20207;-41
2021/03/29 05:34:44;;;;;;;9.00;5.40;;;6.70;97.50;;;;;;5092169;28;20718;-41
2021/03/29 05:37:11;;;;;;;15.73;5.93;;;6.70;97.40;;;;;;5093865;28;20242;-42
2021/03/29 05:39:40;;;;;;;8.57;5.10;;;6.80;97.20;;;;;;5094273;28;20271;-42
2021/03/29 05:42:08;;;;;;;9.90;5.47;;;6.90;97.10;;;;;;5095080;28;20222;-42
2021/03/29 05:44:36;;;;;;;6.80;5.10;;;6.90;96.90;;;;;;5092173;28;20318;-40
2021/03/29 05:47:04;;;;;;;6.65;5.15;;;7.00;96.70;;;;;;5092033;28;20677;-41
2021/03/29 05:49:31;;;;;;;9.15;5.07;;;7.10;96.50;;;;;;5092270;28;20238;-40
2021/03/29 05:51:59;;;;;;;7.22;4.82;;;7.20;96.40;;;;;;5092033;28;20736;-41
2021/03/29 05:54:26;;;;;;;9.82;5.53;;;7.20;96.20;;;;;;5091806;28;20298;-41
2021/03/29 05:56:55;;;;;;;6.85;5.57;;;7.30;96.10;;;;;;5092249;28;20206;-41
2021/03/29 05:59:24;;;;;;;9.15;5.55;;;7.40;96.00;;;;;;5091191;28;20613;-41
2021/03/29 06:01:53;;;;;;;11.43;7.30;;;7.40;95.90;;;;;;5090652;28;20583;-40
2021/03/29 06:04:42;;;;;;;15.13;7.45;;;7.40;95.80;;;;;;5090588;28;20247;-42
2021/03/29 06:07:14;;;;;;;14.18;7.10;;;7.50;95.70;;;;;;5090640;28;20569;-40
2021/03/29 06:09:42;;;;;;;9.77;6.50;;;7.50;95.70;;;;;;5090833;28;20242;-41
2021/03/29 06:12:11;;;;;;;14.50;7.88;;;7.50;95.50;;;;;;5091968;28;20226;-41
2021/03/29 06:14:38;;;;;;;13.00;7.70;;;7.60;95.50;;;;;;5092063;28;20297;-41
2021/03/29 06:17:07;;;;;;;14.60;7.55;;;7.60;95.30;;;;;;5091809;28;20207;-43
2021/03/29 06:19:49;;;;;;;15.35;10.15;;;7.80;95.20;;;;;;5092009;28;20203;-42
2021/03/29 06:22:22;;;;;;;7.32;6.28;;;7.90;95.00;;;;;;5091948;28;20342;-44
2021/03/29 06:25:08;;;;;;;11.30;6.70;;;8.00;94.80;;;;;;5092271;28;20346;-42
2021/03/29 06:27:45;;;;;;;9.73;6.60;;;8.10;94.60;;;;;;5095851;28;20265;-43
2021/03/29 06:30:24;;;;;;;8.68;6.22;;;8.10;94.50;;;;;;5095890;28;20656;-42
2021/03/29 06:33:03;;;;;;;9.45;6.07;;;8.20;94.30;;;;;;5095933;28;20206;-43
2021/03/29 06:35:33;;;;;;;10.38;6.15;;;8.30;94.20;;;;;;5095728;28;20202;-45
2021/03/29 06:38:12;;;;;;;8.48;6.50;;;8.50;94.00;;;;;;5095651;28;20253;-45
2021/03/29 06:40:41;;;;;;;9.50;6.25;;;8.60;93.80;;;;;;5095901;28;20210;-44
2021/03/29 06:43:21;;;;;;;12.85;6.18;;;8.70;93.60;;;;;;5095613;28;20321;-45
2021/03/29 06:45:49;;;;;;;11.05;6.10;;;8.80;93.40;;;;;;5095667;28;20206;-46
2021/03/29 06:48:21;;;;;;;18.92;7.72;;;9.00;93.30;;;;;;5095479;28;20210;-43
2021/03/29 06:51:06;;;;;;;10.00;5.88;;;9.10;93.10;;;;;;5095673;28;20217;-43
2021/03/29 06:53:34;;;;;;;15.85;6.68;;;9.20;92.90;;;;;;5095610;28;20215;-45
2021/03/29 06:56:22;;;;;;;10.52;5.65;;;9.40;92.80;;;;;;5095352;28;20208;-46
2021/03/29 06:58:52;;;;;;;7.85;6.10;;;9.50;92.50;;;;;;5095351;28;20239;-40
2021/03/29 07:01:21;;;;;;;15.30;6.60;;;9.60;92.20;;;;;;5095405;28;20206;-41
2021/03/29 07:03:50;;;;;;;8.45;5.13;;;9.80;92.00;;;;;;5095596;28;20271;-41
2021/03/29 07:06:19;;;;;;;8.05;5.22;;;10.00;91.80;;;;;;5097094;28;20218;-41
2021/03/29 07:08:47;;;;;;;7.55;4.53;;;10.10;91.50;;;;;;5094900;28;20291;-41
2021/03/29 07:11:16;;;;;;;13.75;5.28;;;10.30;91.20;;;;;;5094771;28;20234;-43
2021/03/29 07:13:44;;;;;;;6.25;4.97;;;10.30;91.00;;;;;;5094846;28;20299;-41
2021/03/29 07:16:12;;;;;;;7.55;4.68;;;10.40;90.80;;;;;;5094873;28;20620;-41
2021/03/29 07:18:40;;;;;;;9.02;4.97;;;10.50;90.70;;;;;;5094795;28;20213;-40
2021/03/29 07:21:10;;;;;;;9.52;5.30;;;10.60;90.50;;;;;;5094871;28;20268;-40
2021/03/29 07:23:39;;;;;;;6.38;5.10;;;10.70;90.20;;;;;;5094794;28;20234;-39
2021/03/29 07:26:21;;;;;;;8.90;5.18;;;10.80;90.00;;;;;;5094671;28;20265;-47
2021/03/29 07:28:50;;;;;;;7.80;4.95;;;11.00;90.00;;;;;;5094677;28;20217;-44
2021/03/29 07:31:40;;;;;;;5.93;4.20;;;11.00;89.10;;;;;;5094685;28;20255;-41
2021/03/29 07:34:07;;;;;;;8.90;4.28;;;11.20;88.40;;;;;;5094561;28;20215;-40
2021/03/29 07:36:42;;;;;;;6.95;4.15;;;11.30;88.10;;;;;;5094051;28;20419;-41
2021/03/29 07:39:10;;;;;;;5.40;4.43;;;11.40;87.70;;;;;;5094653;28;20218;-41
2021/03/29 07:41:38;;;;;;;6.88;4.82;;;11.40;87.20;;;;;;5094242;28;20318;-46
2021/03/29 07:44:16;;;;;;;5.85;4.53;;;11.50;86.80;;;;;;5094494;28;20208;-42
2021/03/29 07:46:48;;;;;;;5.65;4.10;;;11.60;86.30;;;;;;5094477;28;20252;-43
2021/03/29 07:49:46;;;;;;;7.72;4.22;;;11.70;86.00;;;;;;5094621;28;20274;-44
2021/03/29 07:52:31;;;;;;;5.30;4.80;;;11.70;85.60;;;;;;5094350;28;20218;-45
2021/03/29 07:54:59;;;;;;;6.15;4.80;;;11.70;85.60;;;;;;5094250;28;20297;-43
2021/03/29 07:58:04;;;;;;;6.72;4.38;;;11.80;85.60;;;;;;5094498;28;20207;-42
2021/03/29 08:01:00;;;;;;;6.65;4.80;;;11.90;84.90;;;;;;5091266;28;20732;-41
2021/03/29 08:04:02;;;;;;;7.05;4.45;;;12.00;84.70;;;;;;5093953;28;20314;-41
2021/03/29 08:06:48;;;;;;;5.03;4.03;;;12.20;84.20;;;;;;5094123;28;20210;-42
2021/03/29 08:09:18;;;;;;;4.40;3.83;;;12.30;83.00;;;;;;5093983;28;20330;-41
2021/03/29 08:12:02;;;;;;;5.50;3.75;;;12.40;83.70;;;;;;5093922;28;20748;-40
2021/03/29 08:14:35;;;;;;;8.45;4.22;;;12.50;82.30;;;;;;5094060;28;20214;-40
2021/03/29 08:17:54;;;;;;;7.72;4.57;;;12.60;82.90;;;;;;5093873;28;20654;-41
2021/03/29 08:20:53;;;;;;;7.05;4.43;;;12.70;81.70;;;;;;5093783;28;20704;-41
2021/03/29 08:23:39;;;;;;;3.80;3.25;;;12.80;81.10;;;;;;5093835;28;20313;-41
2021/03/29 08:26:11;;;;;;;4.10;3.42;;;12.90;80.50;;;;;;5093678;28;20218;-41
2021/03/29 08:29:28;;;;;;;3.38;3.08;;;13.00;80.00;;;;;;5093441;28;20215;-40
2021/03/29 08:32:17;;;;;;;4.65;3.55;;;13.20;79.20;;;;;;5093589;28;20505;-41
2021/03/29 08:34:51;;;;;;;3.88;3.38;;;13.40;78.70;;;;;;5093446;28;20642;-43
2021/03/29 08:37:25;;;;;;;3.75;3.08;;;13.80;78.00;;;;;;5093764;28;20309;-43
2021/03/29 08:39:54;;;;;;;3.17;2.55;;;14.20;76.50;;;;;;5093710;28;20664;-43
2021/03/29 08:42:23;;;;;;;7.90;3.35;;;14.60;74.50;;;;;;5093427;28;20223;-44
2021/03/29 08:44:51;;;;;;;9.55;3.22;;;14.90;73.20;;;;;;5093401;28;20569;-44
2021/03/29 08:47:21;;;;;;;4.45;2.90;;;15.00;71.60;;;;;;5093362;28;20293;-41
2021/03/29 08:49:52;;;;;;;3.03;2.50;;;15.00;70.30;;;;;;5092624;28;20302;-40
2021/03/29 08:52:21;;;;;;;5.47;2.75;;;14.90;69.10;;;;;;5093169;28;20226;-46
2021/03/29 08:54:50;;;;;;;3.40;2.53;;;14.80;69.80;;;;;;5093165;28;20221;-43
2021/03/29 08:57:17;;;;;;;3.65;2.00;;;14.70;69.80;;;;;;5093231;28;20624;-46
2021/03/29 08:59:44;;;;;;;3.42;2.13;;;14.60;68.90;;;;;;5092976;28;20221;-41
2021/03/29 09:02:15;;;;;;;2.53;2.30;;;14.60;68.30;;;;;;5092916;28;20317;-41
2021/03/29 09:04:54;;;;;;;8.07;2.78;;;14.60;68.00;;;;;;5093214;28;20244;-41
2021/03/29 09:07:28;;;;;;;4.45;2.80;;;14.70;68.00;;;;;;5093055;28;20301;-45
2021/03/29 09:09:56;;;;;;;6.90;3.63;;;15.00;67.30;;;;;;5092794;28;20341;-43
2021/03/29 09:12:29;;;;;;;5.20;2.30;;;15.30;66.50;;;;;;5092963;28;20230;-44
2021/03/29 09:14:57;;;;;;;5.18;3.50;;;15.60;65.20;;;;;;5093104;28;20293;-44
2021/03/29 09:17:26;;;;;;;6.85;3.33;;;15.70;64.50;;;;;;5092687;28;20243;-46
2021/03/29 09:19:54;;;;;;;6.70;3.03;;;15.80;64.00;;;;;;5092917;28;20271;-44
2021/03/29 09:22:33;;;;;;;3.97;3.08;;;15.90;63.40;;;;;;5092586;28;20227;-47
2021/03/29 09:25:00;;;;;;;6.88;2.45;;;15.90;63.10;;;;;;5092556;28;20293;-47
2021/03/29 09:27:37;;;;;;;5.47;2.58;;;15.90;63.00;;;;;;5092766;28;20264;-42
2021/03/29 09:30:11;;;;;;;3.80;2.33;;;15.90;62.70;;;;;;5092700;28;20318;-43
2021/03/29 09:32:43;;;;;;;7.43;2.20;;;16.00;61.30;;;;;;5092529;28;20294;-46
2021/03/29 09:35:12;;;;;;;3.95;2.67;;;16.00;61.80;;;;;;5092476;28;20597;-42
2021/03/29 09:37:48;;;;;;;3.60;2.50;;;16.10;61.70;;;;;;5092594;28;20290;-43
2021/03/29 09:40:18;;;;;;;5.38;2.42;;;16.20;60.60;;;;;;5092338;28;20256;-42
2021/03/29 09:42:47;;;;;;;4.32;2.00;;;16.20;60.90;;;;;;5092194;28;20313;-44
2021/03/29 09:45:21;;;;;;;2.88;2.33;;;16.20;60.20;;;;;;5092387;28;20297;-46
2021/03/29 09:47:59;;;;;;;5.70;2.03;;;16.30;59.20;;;;;;5092291;28;20191;-43
2021/03/29 09:50:31;;;;;;;4.97;1.92;;;16.30;58.30;;;;;;5092242;28;20206;-44
2021/03/29 09:53:11;;;;;;;3.17;1.70;;;16.30;58.20;;;;;;5092327;28;20203;-42
2021/03/29 09:55:47;;;;;;;4.43;2.35;;;16.30;57.50;;;;;;5092105;28;20311;-48
2021/03/29 09:58:18;;;;;;;3.88;2.20;;;16.30;57.30;;;;;;5092186;28;20206;-45
2021/03/29 10:00:46;;;;;;;4.57;2.42;;;16.30;57.70;;;;;;5091886;28;20632;-43
2021/03/29 10:03:16;;;;;;;5.55;2.35;;;16.40;57.70;;;;;;5092155;28;20230;-44
2021/03/29 10:05:45;;;;;;;2.60;2.00;;;16.40;56.60;;;;;;5092178;28;20218;-44
2021/03/29 10:08:24;;;;;;;4.68;2.05;;;16.40;56.90;;;;;;5091753;28;20253;-45
2021/03/29 10:11:06;;;;;;;5.47;2.05;;;16.50;55.90;;;;;;5092141;28;20297;-45
2021/03/29 10:13:36;;;;;;;5.97;2.13;;;16.60;55.50;;;;;;5092003;28;20285;-42
2021/03/29 10:16:20;;;;;;;3.53;2.08;;;16.60;55.20;;;;;;5092208;28;20359;-43
2021/03/29 10:19:11;;;;;;;3.30;1.80;;;16.70;54.20;;;;;;5092508;28;20214;-43
2021/03/29 10:22:08;;;;;;;2.97;1.92;;;16.70;54.20;;;;;;5092206;28;20635;-42
2021/03/29 10:24:55;;;;;;;4.80;1.90;;;16.80;53.40;;;;;;5091898;28;20210;-47
2021/03/29 10:27:22;;;;;;;3.75;2.00;;;16.70;53.60;;;;;;5091730;28;20592;-48
2021/03/29 10:29:49;;;;;;;6.80;3.85;;;16.70;53.70;;;;;;5092585;28;20576;-43
2021/03/29 10:32:19;;;;;;;3.58;2.53;;;16.80;52.60;;;;;;5091725;28;20707;-42
2021/03/29 10:34:49;;;;;;;4.80;2.15;;;16.80;52.30;;;;;;5092118;28;20263;-45
2021/03/29 10:37:22;;;;;;;3.47;1.90;;;16.80;51.80;;;;;;5091595;28;20306;-40
2021/03/29 10:39:51;;;;;;;2.35;1.58;;;16.80;52.10;;;;;;5091655;28;20246;-46
2021/03/29 10:42:20;;;;;;;3.17;1.88;;;16.90;51.90;;;;;;5091994;28;20305;-41
2021/03/29 10:44:48;;;;;;;3.95;2.03;;;16.90;51.30;;;;;;5091708;28;20293;-41
2021/03/29 10:47:15;;;;;;;3.70;1.80;;;17.00;50.70;;;;;;5091680;28;20641;-41
2021/03/29 10:49:42;;;;;;;2.00;1.80;;;17.00;50.20;;;;;;5091674;28;20210;-41
2021/03/29 10:52:10;;;;;;;1.98;1.30;;;16.90;49.80;;;;;;5091502;28;20206;-40
2021/03/29 10:54:37;;;;;;;2.58;1.60;;;17.00;49.70;;;;;;5091458;28;20210;-43
2021/03/29 10:57:06;;;;;;;1.88;1.50;;;17.00;50.30;;;;;;5091830;28;20587;-46
2021/03/29 10:59:34;;;;;;;6.65;2.45;;;17.10;48.70;;;;;;5091398;28;20253;-42
2021/03/29 11:02:01;;;;;;;3.20;1.73;;;17.20;48.70;;;;;;5091350;28;20202;-41
2021/03/29 11:04:28;;;;;;;3.05;1.67;;;17.20;48.40;;;;;;5091456;28;20217;-42
2021/03/29 11:06:55;;;;;;;2.70;1.70;;;17.40;48.50;;;;;;5091459;28;20314;-43
2021/03/29 11:09:23;;;;;;;6.10;1.98;;;17.50;48.30;;;;;;5091291;28;20270;-44
2021/03/29 11:11:52;;;;;;;12.43;4.13;;;17.50;48.20;;;;;;5091477;28;20217;-48
2021/03/29 11:14:20;;;;;;;3.67;1.80;;;17.60;47.60;;;;;;5094996;28;20267;-46
2021/03/29 11:16:49;;;;;;;4.93;1.67;;;17.60;46.00;;;;;;5095011;28;20203;-46
2021/03/29 11:19:16;;;;;;;2.72;1.75;;;17.60;46.40;;;;;;5094982;28;20681;-45
2021/03/29 11:21:43;;;;;;;4.32;2.67;;;17.60;46.40;;;;;;5095095;28;20206;-46
2021/03/29 11:24:11;;;;;;;4.57;2.60;;;17.70;46.50;;;;;;5094734;28;20738;-48
2021/03/29 11:26:38;;;;;;;2.25;1.67;;;17.70;46.30;;;;;;5094899;28;20210;-44
2021/03/29 11:29:05;;;;;;;5.22;1.73;;;17.70;46.10;;;;;;5095411;28;20230;-44
2021/03/29 11:31:36;;;;;;;2.63;1.55;;;17.80;46.00;;;;;;5095686;28;20202;-44
2021/03/29 11:34:03;;;;;;;1.98;1.42;;;17.90;45.70;;;;;;5095693;28;20226;-43
2021/03/29 11:36:30;;;;;;;1.48;1.38;;;18.00;45.20;;;;;;5095721;28;20395;-42
2021/03/29 11:38:57;;;;;;;2.83;2.10;;;18.00;45.10;;;;;;5095536;28;20293;-45
2021/03/29 11:41:24;;;;;;;2.10;1.80;;;18.10;44.90;;;;;;5095418;28;20703;-42
2021/03/29 11:43:52;;;;;;;2.33;1.65;;;18.10;44.50;;;;;;5094906;28;20313;-42
2021/03/29 11:46:19;;;;;;;2.40;1.67;;;18.10;43.70;;;;;;5094727;28;20716;-43
2021/03/29 11:48:46;;;;;;;2.78;1.35;;;18.20;43.80;;;;;;5094229;28;20679;-42
2021/03/29 11:51:14;;;;;;;2.75;1.98;;;18.20;43.40;;;;;;5094713;28;20224;-42
2021/03/29 11:53:41;;;;;;;2.15;1.60;;;18.20;42.40;;;;;;5094526;28;20207;-39
2021/03/29 11:56:08;;;;;;;3.03;1.50;;;18.30;43.00;;;;;;5094337;28;20264;-41
2021/03/29 11:58:35;;;;;;;5.65;1.65;;;18.30;43.70;;;;;;5094105;28;20309;-41
2021/03/29 12:01:11;;;;;;;4.75;1.23;;;18.40;43.90;;;;;;5094650;28;20207;-41
2021/03/29 12:03:42;;;;;;;4.70;2.05;;;18.50;42.70;;;;;;5094137;28;20337;-40
2021/03/29 12:06:12;;;;;;;3.30;1.50;;;18.50;41.70;;;;;;5093857;28;20202;-41
2021/03/29 12:08:45;;;;;;;2.90;1.65;;;18.50;41.70;;;;;;5093838;28;20270;-43
2021/03/29 12:13:57;;;;;;;3.05;1.55;;;18.50;41.20;;;;;;5093931;28;20230;-41
2021/03/29 12:16:26;;;;;;;1.58;1.30;;;18.40;41.50;;;;;;5093806;28;20736;-38
2021/03/29 12:18:56;;;;;;;1.88;1.42;;;18.40;41.70;;;;;;5093738;28;20340;-39
2021/03/29 12:21:28;;;;;;;2.50;1.73;;;18.40;41.70;;;;;;5093602;28;20634;-40
2021/03/29 12:23:59;;;;;;;4.72;1.95;;;18.60;41.90;;;;;;5093256;28;20665;-41
2021/03/29 12:26:27;;;;;;;4.13;1.75;;;18.60;42.10;;;;;;5093981;28;20630;-40
2021/03/29 12:28:56;;;;;;;5.93;1.63;;;18.70;42.30;;;;;;5093597;28;20214;-42
2021/03/29 12:31:24;;;;;;;7.65;2.70;;;18.70;42.30;;;;;;5093624;28;20589;-42
2021/03/29 12:33:52;;;;;;;2.72;1.92;;;18.80;42.30;;;;;;5093658;28;20229;-43
2021/03/29 12:36:21;;;;;;;2.80;1.80;;;18.90;42.30;;;;;;5093646;28;20206;-45
2021/03/29 12:38:54;;;;;;;3.35;1.63;;;19.00;42.20;;;;;;5094859;28;20253;-45
2021/03/29 12:41:23;;;;;;;4.40;1.98;;;19.00;42.30;;;;;;5094003;28;20732;-41
2021/03/29 12:44:01;;;;;;;3.03;1.55;;;19.00;42.20;;;;;;5093599;28;20298;-42
2021/03/29 12:46:28;;;;;;;4.47;1.58;;;19.00;42.10;;;;;;5093580;28;20285;-41
2021/03/29 12:48:55;;;;;;;5.55;2.28;;;19.00;42.30;;;;;;5093261;28;20669;-42
2021/03/29 12:51:23;;;;;;;4.20;1.65;;;19.00;42.50;;;;;;5093177;28;20206;-43
2021/03/29 12:53:51;;;;;;;4.65;1.73;;;19.00;42.30;;;;;;5092820;28;20261;-43
2021/03/29 12:56:18;;;;;;;2.25;1.60;;;19.00;42.30;;;;;;5092890;28;20623;-44
2021/03/29 12:58:45;;;;;;;4.03;2.05;;;18.90;42.10;;;;;;5092437;28;20726;-41
2021/03/29 13:01:13;;;;;;;4.75;2.00;;;18.90;42.20;;;;;;5092516;28;20211;-43
2021/03/29 13:03:42;;;;;;;5.25;1.80;;;19.00;42.30;;;;;;5092543;28;20318;-43
2021/03/29 13:06:15;;;;;;;4.18;1.98;;;19.00;42.20;;;;;;5092416;28;20203;-42
2021/03/29 13:08:43;;;;;;;3.83;1.67;;;19.10;42.20;;;;;;5093381;28;20238;-42
2021/03/29 13:11:26;;;;;;;3.70;2.78;;;19.20;41.60;;;;;;5094308;28;20320;-43
2021/03/29 13:13:53;;;;;;;3.55;2.00;;;19.20;41.20;;;;;;5094267;28;20206;-42